sensor_id;sensor_type;location;lat;lon;timestamp;P1;durP1;ratioP1;P2;durP2;ratioP2
6549;SDS011;15142;48.888;9.134;2023-04-16T00:01:25;17.33;;;11.30;;
6549;SDS011;15142;48.888;9.134;2023-04-16T00:03:53;21.50;;;13.33;;
6549;SDS011;15142;48.888;9.134;2023-04-16T00:06:22;17.67;;;11.20;;
6549;SDS011;15142;48.888;9.134;2023-04-16T00:08:55;19.47;;;11.33;;
6549;SDS011;15142;48.888;9.134;2023-04-16T00:11:26;18.47;;;12.03;;
6549;SDS011;15142;48.888;9.134;2023-04-16T00:13:55;18.77;;;12.20;;
6549;SDS011;15142;48.888;9.134;2023-04-16T00:16:24;19.77;;;13.60;;
6549;SDS011;15142;48.888;9.134;2023-04-16T00:18:52;13.43;;;10.30;;
6549;SDS011;15142;48.888;9.134;2023-04-16T00:21:21;18.47;;;10.23;;
6549;SDS011;15142;48.888;9.134;2023-04-16T00:23:50;13.80;;;9.63;;
6549;SDS011;15142;48.888;9.134;2023-04-16T00:26:22;20.93;;;11.20;;
6549;SDS011;15142;48.888;9.134;2023-04-16T00:28:52;19.70;;;11.87;;
6549;SDS011;15142;48.888;9.134;2023-04-16T00:31:25;16.87;;;10.83;;
6549;SDS011;15142;48.888;9.134;2023-04-16T00:33:55;19.13;;;11.90;;
6549;SDS011;15142;48.888;9.134;2023-04-16T00:36:24;17.13;;;11.33;;
6549;SDS011;15142;48.888;9.134;2023-04-16T00:38:54;18.20;;;11.27;;
6549;SDS011;15142;48.888;9.134;2023-04-16T00:41:26;13.60;;;9.83;;
6549;SDS011;15142;48.888;9.134;2023-04-16T00:43:54;18.80;;;11.23;;
6549;SDS011;15142;48.888;9.134;2023-04-16T00:46:25;15.27;;;10.60;;
6549;SDS011;15142;48.888;9.134;2023-04-16T00:48:54;17.53;;;10.60;;
6549;SDS011;15142;48.888;9.134;2023-04-16T00:51:24;16.47;;;10.30;;
6549;SDS011;15142;48.888;9.134;2023-04-16T00:53:53;16.77;;;10.40;;
6549;SDS011;15142;48.888;9.134;2023-04-16T00:56:22;14.03;;;10.60;;
6549;SDS011;15142;48.888;9.134;2023-04-16T00:58:56;10.17;;;8.10;;
6549;SDS011;15142;48.888;9.134;2023-04-16T01:01:25;16.97;;;8.60;;
6549;SDS011;15142;48.888;9.134;2023-04-16T01:03:53;14.83;;;10.03;;
6549;SDS011;15142;48.888;9.134;2023-04-16T01:06:22;16.37;;;10.20;;
6549;SDS011;15142;48.888;9.134;2023-04-16T01:08:51;15.10;;;9.50;;
6549;SDS011;15142;48.888;9.134;2023-04-16T01:11:19;13.63;;;9.03;;
6549;SDS011;15142;48.888;9.134;2023-04-16T01:13:49;13.63;;;9.47;;
6549;SDS011;15142;48.888;9.134;2023-04-16T01:16:20;15.07;;;10.00;;
6549;SDS011;15142;48.888;9.134;2023-04-16T01:18:50;13.13;;;9.37;;
6549;SDS011;15142;48.888;9.134;2023-04-16T01:21:22;14.23;;;8.87;;
6549;SDS011;15142;48.888;9.134;2023-04-16T01:23:51;14.93;;;8.87;;
6549;SDS011;15142;48.888;9.134;2023-04-16T01:26:19;21.73;;;8.63;;
6549;SDS011;15142;48.888;9.134;2023-04-16T01:28:48;11.93;;;7.90;;
6549;SDS011;15142;48.888;9.134;2023-04-16T01:31:17;10.87;;;7.90;;
6549;SDS011;15142;48.888;9.134;2023-04-16T01:34:08;12.47;;;8.07;;
6549;SDS011;15142;48.888;9.134;2023-04-16T01:36:40;13.47;;;8.70;;
6549;SDS011;15142;48.888;9.134;2023-04-16T01:39:08;16.33;;;9.00;;
6549;SDS011;15142;48.888;9.134;2023-04-16T01:41:40;15.77;;;10.20;;
6549;SDS011;15142;48.888;9.134;2023-04-16T01:44:09;13.70;;;8.70;;
6549;SDS011;15142;48.888;9.134;2023-04-16T01:46:38;14.00;;;9.40;;
6549;SDS011;15142;48.888;9.134;2023-04-16T01:49:07;13.20;;;8.87;;
6549;SDS011;15142;48.888;9.134;2023-04-16T01:51:36;11.63;;;8.60;;
6549;SDS011;15142;48.888;9.134;2023-04-16T01:54:07;12.80;;;9.73;;
6549;SDS011;15142;48.888;9.134;2023-04-16T01:56:37;11.83;;;8.90;;
6549;SDS011;15142;48.888;9.134;2023-04-16T01:59:06;12.17;;;8.30;;
6549;SDS011;15142;48.888;9.134;2023-04-16T02:01:38;12.60;;;7.83;;
6549;SDS011;15142;48.888;9.134;2023-04-16T02:04:07;17.03;;;9.83;;
6549;SDS011;15142;48.888;9.134;2023-04-16T02:06:37;16.27;;;9.30;;
6549;SDS011;15142;48.888;9.134;2023-04-16T02:09:08;14.27;;;9.43;;
6549;SDS011;15142;48.888;9.134;2023-04-16T02:11:38;12.20;;;8.80;;
6549;SDS011;15142;48.888;9.134;2023-04-16T02:14:06;14.27;;;8.30;;
6549;SDS011;15142;48.888;9.134;2023-04-16T02:16:35;14.63;;;8.80;;
6549;SDS011;15142;48.888;9.134;2023-04-16T02:19:17;16.50;;;10.60;;
6549;SDS011;15142;48.888;9.134;2023-04-16T02:21:46;16.90;;;9.73;;
6549;SDS011;15142;48.888;9.134;2023-04-16T02:24:18;17.77;;;10.33;;
6549;SDS011;15142;48.888;9.134;2023-04-16T02:26:47;15.50;;;10.03;;
6549;SDS011;15142;48.888;9.134;2023-04-16T02:29:17;20.03;;;10.77;;
6549;SDS011;15142;48.888;9.134;2023-04-16T02:31:53;15.60;;;10.43;;
6549;SDS011;15142;48.888;9.134;2023-04-16T02:34:22;14.63;;;10.17;;
6549;SDS011;15142;48.888;9.134;2023-04-16T02:36:51;17.17;;;10.40;;
6549;SDS011;15142;48.888;9.134;2023-04-16T02:39:23;18.97;;;10.53;;
6549;SDS011;15142;48.888;9.134;2023-04-16T02:41:52;25.07;;;11.50;;
6549;SDS011;15142;48.888;9.134;2023-04-16T02:44:22;16.30;;;10.47;;
6549;SDS011;15142;48.888;9.134;2023-04-16T02:46:50;18.60;;;10.17;;
6549;SDS011;15142;48.888;9.134;2023-04-16T02:49:19;20.83;;;12.97;;
6549;SDS011;15142;48.888;9.134;2023-04-16T02:51:48;14.87;;;10.07;;
6549;SDS011;15142;48.888;9.134;2023-04-16T02:54:17;17.73;;;10.90;;
6549;SDS011;15142;48.888;9.134;2023-04-16T02:56:48;13.97;;;9.50;;
6549;SDS011;15142;48.888;9.134;2023-04-16T02:59:17;16.30;;;9.97;;
6549;SDS011;15142;48.888;9.134;2023-04-16T03:01:46;18.40;;;10.33;;
6549;SDS011;15142;48.888;9.134;2023-04-16T03:04:15;21.23;;;10.50;;
6549;SDS011;15142;48.888;9.134;2023-04-16T03:06:43;14.43;;;10.27;;
6549;SDS011;15142;48.888;9.134;2023-04-16T03:09:12;16.00;;;9.60;;
6549;SDS011;15142;48.888;9.134;2023-04-16T03:11:41;16.43;;;9.47;;
6549;SDS011;15142;48.888;9.134;2023-04-16T03:14:13;15.60;;;8.90;;
6549;SDS011;15142;48.888;9.134;2023-04-16T03:16:41;14.10;;;9.77;;
6549;SDS011;15142;48.888;9.134;2023-04-16T03:19:10;18.00;;;10.63;;
6549;SDS011;15142;48.888;9.134;2023-04-16T03:21:39;17.87;;;9.77;;
6549;SDS011;15142;48.888;9.134;2023-04-16T03:24:07;17.73;;;10.33;;
6549;SDS011;15142;48.888;9.134;2023-04-16T03:26:36;15.17;;;9.27;;
6549;SDS011;15142;48.888;9.134;2023-04-16T03:29:05;13.00;;;9.17;;
6549;SDS011;15142;48.888;9.134;2023-04-16T03:31:36;19.37;;;11.17;;
6549;SDS011;15142;48.888;9.134;2023-04-16T03:34:06;11.60;;;8.40;;
6549;SDS011;15142;48.888;9.134;2023-04-16T03:36:35;17.13;;;9.27;;
6549;SDS011;15142;48.888;9.134;2023-04-16T03:39:03;17.40;;;10.33;;
6549;SDS011;15142;48.888;9.134;2023-04-16T03:41:32;19.20;;;10.63;;
6549;SDS011;15142;48.888;9.134;2023-04-16T03:44:01;19.87;;;10.80;;
6549;SDS011;15142;48.888;9.134;2023-04-16T03:46:32;16.53;;;9.60;;
6549;SDS011;15142;48.888;9.134;2023-04-16T03:49:03;20.97;;;9.70;;
6549;SDS011;15142;48.888;9.134;2023-04-16T03:51:33;16.70;;;10.90;;
6549;SDS011;15142;48.888;9.134;2023-04-16T03:54:01;25.33;;;11.90;;
6549;SDS011;15142;48.888;9.134;2023-04-16T03:56:31;23.50;;;12.13;;
6549;SDS011;15142;48.888;9.134;2023-04-16T03:59:01;20.10;;;10.67;;
6549;SDS011;15142;48.888;9.134;2023-04-16T04:01:29;19.87;;;11.03;;
6549;SDS011;15142;48.888;9.134;2023-04-16T04:03:59;19.50;;;11.00;;
6549;SDS011;15142;48.888;9.134;2023-04-16T04:06:30;22.67;;;11.83;;
6549;SDS011;15142;48.888;9.134;2023-04-16T04:08:59;25.70;;;11.90;;
6549;SDS011;15142;48.888;9.134;2023-04-16T04:11:27;23.53;;;12.33;;
6549;SDS011;15142;48.888;9.134;2023-04-16T04:13:56;22.70;;;11.77;;
6549;SDS011;15142;48.888;9.134;2023-04-16T04:16:25;17.70;;;11.03;;
6549;SDS011;15142;48.888;9.134;2023-04-16T04:18:54;22.50;;;12.70;;
6549;SDS011;15142;48.888;9.134;2023-04-16T04:21:30;22.07;;;11.63;;
6549;SDS011;15142;48.888;9.134;2023-04-16T04:23:58;21.37;;;13.03;;
6549;SDS011;15142;48.888;9.134;2023-04-16T04:26:29;20.93;;;12.87;;
6549;SDS011;15142;48.888;9.134;2023-04-16T04:28:57;22.67;;;11.97;;
6549;SDS011;15142;48.888;9.134;2023-04-16T04:31:26;20.17;;;12.80;;
6549;SDS011;15142;48.888;9.134;2023-04-16T04:33:54;18.37;;;12.00;;
6549;SDS011;15142;48.888;9.134;2023-04-16T04:36:23;21.40;;;11.93;;
6549;SDS011;15142;48.888;9.134;2023-04-16T04:38:55;19.23;;;10.50;;
6549;SDS011;15142;48.888;9.134;2023-04-16T04:41:24;25.37;;;12.37;;
6549;SDS011;15142;48.888;9.134;2023-04-16T04:43:53;18.93;;;12.20;;
6549;SDS011;15142;48.888;9.134;2023-04-16T04:46:24;24.40;;;12.50;;
6549;SDS011;15142;48.888;9.134;2023-04-16T04:48:52;21.73;;;11.70;;
6549;SDS011;15142;48.888;9.134;2023-04-16T04:51:22;21.03;;;12.10;;
6549;SDS011;15142;48.888;9.134;2023-04-16T04:53:51;20.60;;;12.83;;
6549;SDS011;15142;48.888;9.134;2023-04-16T04:58:56;20.20;;;13.33;;
6549;SDS011;15142;48.888;9.134;2023-04-16T05:01:25;26.47;;;12.73;;
6549;SDS011;15142;48.888;9.134;2023-04-16T05:03:54;20.70;;;11.03;;
6549;SDS011;15142;48.888;9.134;2023-04-16T05:06:22;24.23;;;12.50;;
6549;SDS011;15142;48.888;9.134;2023-04-16T05:08:51;26.77;;;14.43;;
6549;SDS011;15142;48.888;9.134;2023-04-16T05:11:19;23.07;;;12.30;;
6549;SDS011;15142;48.888;9.134;2023-04-16T05:13:49;25.97;;;12.60;;
6549;SDS011;15142;48.888;9.134;2023-04-16T05:16:20;21.03;;;11.67;;
6549;SDS011;15142;48.888;9.134;2023-04-16T05:18:49;30.20;;;14.30;;
6549;SDS011;15142;48.888;9.134;2023-04-16T05:21:17;33.23;;;15.47;;
6549;SDS011;15142;48.888;9.134;2023-04-16T05:23:46;27.07;;;15.00;;
6549;SDS011;15142;48.888;9.134;2023-04-16T05:26:15;31.30;;;15.70;;
6549;SDS011;15142;48.888;9.134;2023-04-16T05:28:43;29.10;;;16.70;;
6549;SDS011;15142;48.888;9.134;2023-04-16T05:31:12;26.47;;;16.43;;
6549;SDS011;15142;48.888;9.134;2023-04-16T05:33:43;32.40;;;15.43;;
6549;SDS011;15142;48.888;9.134;2023-04-16T05:36:12;35.10;;;17.20;;
6549;SDS011;15142;48.888;9.134;2023-04-16T05:38:41;39.27;;;18.10;;
6549;SDS011;15142;48.888;9.134;2023-04-16T05:41:09;36.30;;;16.30;;
6549;SDS011;15142;48.888;9.134;2023-04-16T05:43:38;37.00;;;16.97;;
6549;SDS011;15142;48.888;9.134;2023-04-16T05:46:06;37.90;;;17.70;;
6549;SDS011;15142;48.888;9.134;2023-04-16T05:48:35;33.50;;;16.53;;
6549;SDS011;15142;48.888;9.134;2023-04-16T05:51:07;38.03;;;18.67;;
6549;SDS011;15142;48.888;9.134;2023-04-16T05:53:36;37.80;;;16.97;;
6549;SDS011;15142;48.888;9.134;2023-04-16T05:56:05;45.10;;;17.73;;
6549;SDS011;15142;48.888;9.134;2023-04-16T05:58:35;46.43;;;19.00;;
6549;SDS011;15142;48.888;9.134;2023-04-16T06:01:03;48.10;;;19.83;;
6549;SDS011;15142;48.888;9.134;2023-04-16T06:03:32;37.43;;;18.47;;
6549;SDS011;15142;48.888;9.134;2023-04-16T06:06:01;42.80;;;19.20;;
6549;SDS011;15142;48.888;9.134;2023-04-16T06:08:32;42.80;;;15.90;;
6549;SDS011;15142;48.888;9.134;2023-04-16T06:11:00;38.97;;;19.57;;
6549;SDS011;15142;48.888;9.134;2023-04-16T06:13:29;42.30;;;17.83;;
6549;SDS011;15142;48.888;9.134;2023-04-16T06:15:58;40.17;;;17.70;;
6549;SDS011;15142;48.888;9.134;2023-04-16T06:18:27;42.97;;;18.70;;
6549;SDS011;15142;48.888;9.134;2023-04-16T06:20:55;42.57;;;17.40;;
6549;SDS011;15142;48.888;9.134;2023-04-16T06:23:25;39.00;;;19.77;;
6549;SDS011;15142;48.888;9.134;2023-04-16T06:25:56;36.03;;;17.53;;
6549;SDS011;15142;48.888;9.134;2023-04-16T06:28:25;34.97;;;17.70;;
6549;SDS011;15142;48.888;9.134;2023-04-16T06:30:53;36.40;;;17.23;;
6549;SDS011;15142;48.888;9.134;2023-04-16T06:33:22;40.20;;;20.93;;
6549;SDS011;15142;48.888;9.134;2023-04-16T06:35:50;42.13;;;20.00;;
6549;SDS011;15142;48.888;9.134;2023-04-16T06:38:19;38.90;;;18.57;;
6549;SDS011;15142;48.888;9.134;2023-04-16T06:40:48;28.97;;;16.07;;
6549;SDS011;15142;48.888;9.134;2023-04-16T06:43:19;39.13;;;20.80;;
6549;SDS011;15142;48.888;9.134;2023-04-16T06:45:48;38.33;;;18.53;;
6549;SDS011;15142;48.888;9.134;2023-04-16T06:48:16;39.93;;;18.80;;
6549;SDS011;15142;48.888;9.134;2023-04-16T06:50:45;34.47;;;19.00;;
6549;SDS011;15142;48.888;9.134;2023-04-16T06:53:14;38.37;;;16.40;;
6549;SDS011;15142;48.888;9.134;2023-04-16T06:55:42;49.97;;;20.07;;
6549;SDS011;15142;48.888;9.134;2023-04-16T06:58:11;28.93;;;15.50;;
6549;SDS011;15142;48.888;9.134;2023-04-16T07:00:42;37.23;;;18.60;;
6549;SDS011;15142;48.888;9.134;2023-04-16T07:03:11;37.50;;;19.67;;
6549;SDS011;15142;48.888;9.134;2023-04-16T07:05:40;30.23;;;16.23;;
6549;SDS011;15142;48.888;9.134;2023-04-16T07:08:08;41.50;;;17.90;;
6549;SDS011;15142;48.888;9.134;2023-04-16T07:10:37;33.37;;;18.63;;
6549;SDS011;15142;48.888;9.134;2023-04-16T07:13:06;29.63;;;15.90;;
6549;SDS011;15142;48.888;9.134;2023-04-16T07:15:34;37.00;;;17.10;;
6549;SDS011;15142;48.888;9.134;2023-04-16T07:18:05;36.83;;;16.60;;
6549;SDS011;15142;48.888;9.134;2023-04-16T07:20:34;40.90;;;15.90;;
6549;SDS011;15142;48.888;9.134;2023-04-16T07:23:03;27.87;;;16.30;;
6549;SDS011;15142;48.888;9.134;2023-04-16T07:25:31;34.43;;;17.00;;
6549;SDS011;15142;48.888;9.134;2023-04-16T07:28:00;29.30;;;16.60;;
6549;SDS011;15142;48.888;9.134;2023-04-16T07:30:30;31.87;;;16.10;;
6549;SDS011;15142;48.888;9.134;2023-04-16T07:33:00;41.37;;;18.53;;
6549;SDS011;15142;48.888;9.134;2023-04-16T07:35:33;29.57;;;17.80;;
6549;SDS011;15142;48.888;9.134;2023-04-16T07:38:01;29.10;;;15.10;;
6549;SDS011;15142;48.888;9.134;2023-04-16T07:40:30;27.43;;;16.03;;
6549;SDS011;15142;48.888;9.134;2023-04-16T07:43:00;34.03;;;15.73;;
6549;SDS011;15142;48.888;9.134;2023-04-16T07:45:29;27.67;;;14.80;;
6549;SDS011;15142;48.888;9.134;2023-04-16T07:47:57;32.10;;;16.60;;
6549;SDS011;15142;48.888;9.134;2023-04-16T07:50:26;26.93;;;14.93;;
6549;SDS011;15142;48.888;9.134;2023-04-16T07:52:57;31.07;;;16.40;;
6549;SDS011;15142;48.888;9.134;2023-04-16T07:55:26;29.27;;;15.97;;
6549;SDS011;15142;48.888;9.134;2023-04-16T07:57:54;27.30;;;14.57;;
6549;SDS011;15142;48.888;9.134;2023-04-16T08:00:23;24.97;;;13.20;;
6549;SDS011;15142;48.888;9.134;2023-04-16T08:02:51;27.77;;;14.43;;
6549;SDS011;15142;48.888;9.134;2023-04-16T08:05:20;22.97;;;14.27;;
6549;SDS011;15142;48.888;9.134;2023-04-16T08:07:49;27.53;;;14.30;;
6549;SDS011;15142;48.888;9.134;2023-04-16T08:10:20;23.17;;;12.57;;
6549;SDS011;15142;48.888;9.134;2023-04-16T08:12:48;21.40;;;13.17;;
6549;SDS011;15142;48.888;9.134;2023-04-16T08:15:17;24.83;;;13.18;;
6549;SDS011;15142;48.888;9.134;2023-04-16T08:17:46;26.20;;;12.17;;
6549;SDS011;15142;48.888;9.134;2023-04-16T08:20:15;24.20;;;13.13;;
6549;SDS011;15142;48.888;9.134;2023-04-16T08:22:43;24.77;;;15.17;;
6549;SDS011;15142;48.888;9.134;2023-04-16T08:25:12;22.17;;;11.73;;
6549;SDS011;15142;48.888;9.134;2023-04-16T08:27:43;21.13;;;11.53;;
6549;SDS011;15142;48.888;9.134;2023-04-16T08:30:12;29.20;;;15.10;;
6549;SDS011;15142;48.888;9.134;2023-04-16T08:32:41;22.47;;;11.77;;
6549;SDS011;15142;48.888;9.134;2023-04-16T08:35:10;25.67;;;13.50;;
6549;SDS011;15142;48.888;9.134;2023-04-16T08:37:38;23.13;;;13.57;;
6549;SDS011;15142;48.888;9.134;2023-04-16T08:40:07;29.33;;;14.60;;
6549;SDS011;15142;48.888;9.134;2023-04-16T08:42:38;27.27;;;15.10;;
6549;SDS011;15142;48.888;9.134;2023-04-16T08:45:14;20.77;;;11.63;;
6549;SDS011;15142;48.888;9.134;2023-04-16T08:47:44;22.33;;;12.70;;
6549;SDS011;15142;48.888;9.134;2023-04-16T08:50:14;23.10;;;14.20;;
6549;SDS011;15142;48.888;9.134;2023-04-16T08:52:45;23.03;;;12.90;;
6549;SDS011;15142;48.888;9.134;2023-04-16T08:55:18;26.27;;;13.87;;
6549;SDS011;15142;48.888;9.134;2023-04-16T08:57:51;18.93;;;12.37;;
6549;SDS011;15142;48.888;9.134;2023-04-16T09:00:26;19.87;;;12.40;;
6549;SDS011;15142;48.888;9.134;2023-04-16T09:02:56;22.27;;;11.10;;
6549;SDS011;15142;48.888;9.134;2023-04-16T09:05:26;26.20;;;12.93;;
6549;SDS011;15142;48.888;9.134;2023-04-16T09:07:56;20.63;;;12.87;;
6549;SDS011;15142;48.888;9.134;2023-04-16T09:10:25;22.50;;;12.97;;
6549;SDS011;15142;48.888;9.134;2023-04-16T09:12:54;23.33;;;12.57;;
6549;SDS011;15142;48.888;9.134;2023-04-16T09:15:26;20.13;;;11.30;;
6549;SDS011;15142;48.888;9.134;2023-04-16T09:17:55;17.40;;;10.90;;
6549;SDS011;15142;48.888;9.134;2023-04-16T09:20:24;39.70;;;18.30;;
6549;SDS011;15142;48.888;9.134;2023-04-16T09:22:52;31.40;;;16.07;;
6549;SDS011;15142;48.888;9.134;2023-04-16T09:25:21;23.90;;;13.20;;
6549;SDS011;15142;48.888;9.134;2023-04-16T09:27:51;27.03;;;13.03;;
6549;SDS011;15142;48.888;9.134;2023-04-16T09:30:21;25.60;;;14.13;;
6549;SDS011;15142;48.888;9.134;2023-04-16T09:35:46;21.57;;;11.37;;
6549;SDS011;15142;48.888;9.134;2023-04-16T09:38:16;19.97;;;12.10;;
6549;SDS011;15142;48.888;9.134;2023-04-16T09:40:45;24.30;;;12.57;;
6549;SDS011;15142;48.888;9.134;2023-04-16T09:43:14;24.70;;;12.13;;
6549;SDS011;15142;48.888;9.134;2023-04-16T09:45:47;27.43;;;12.67;;
6549;SDS011;15142;48.888;9.134;2023-04-16T09:48:23;23.03;;;12.77;;
6549;SDS011;15142;48.888;9.134;2023-04-16T09:50:56;26.03;;;12.23;;
6549;SDS011;15142;48.888;9.134;2023-04-16T09:53:25;21.13;;;12.60;;
6549;SDS011;15142;48.888;9.134;2023-04-16T09:55:55;21.47;;;11.20;;
6549;SDS011;15142;48.888;9.134;2023-04-16T09:58:24;21.57;;;11.40;;
6549;SDS011;15142;48.888;9.134;2023-04-16T10:00:54;21.93;;;10.83;;
6549;SDS011;15142;48.888;9.134;2023-04-16T10:03:32;23.63;;;11.33;;
6549;SDS011;15142;48.888;9.134;2023-04-16T10:06:05;22.00;;;12.37;;
6549;SDS011;15142;48.888;9.134;2023-04-16T10:08:35;22.53;;;11.57;;
6549;SDS011;15142;48.888;9.134;2023-04-16T10:11:03;20.83;;;12.23;;
6549;SDS011;15142;48.888;9.134;2023-04-16T10:13:32;20.30;;;12.20;;
6549;SDS011;15142;48.888;9.134;2023-04-16T10:16:01;19.27;;;12.03;;
6549;SDS011;15142;48.888;9.134;2023-04-16T10:18:33;24.27;;;12.60;;
6549;SDS011;15142;48.888;9.134;2023-04-16T10:21:03;21.47;;;11.73;;
6549;SDS011;15142;48.888;9.134;2023-04-16T10:23:32;26.93;;;12.87;;
6549;SDS011;15142;48.888;9.134;2023-04-16T10:26:01;22.13;;;11.13;;
6549;SDS011;15142;48.888;9.134;2023-04-16T10:28:30;26.40;;;13.07;;
6549;SDS011;15142;48.888;9.134;2023-04-16T10:31:00;22.90;;;10.97;;
6549;SDS011;15142;48.888;9.134;2023-04-16T10:33:33;23.70;;;11.50;;
6549;SDS011;15142;48.888;9.134;2023-04-16T10:36:06;16.83;;;11.93;;
6549;SDS011;15142;48.888;9.134;2023-04-16T10:38:40;24.47;;;12.13;;
6549;SDS011;15142;48.888;9.134;2023-04-16T10:41:11;18.77;;;10.13;;
6549;SDS011;15142;48.888;9.134;2023-04-16T10:43:42;22.83;;;10.50;;
6549;SDS011;15142;48.888;9.134;2023-04-16T10:46:21;16.33;;;10.13;;
6549;SDS011;15142;48.888;9.134;2023-04-16T10:48:54;22.73;;;10.67;;
6549;SDS011;15142;48.888;9.134;2023-04-16T10:51:24;26.17;;;11.77;;
6549;SDS011;15142;48.888;9.134;2023-04-16T10:53:55;19.03;;;10.10;;
6549;SDS011;15142;48.888;9.134;2023-04-16T10:56:25;19.60;;;9.13;;
6549;SDS011;15142;48.888;9.134;2023-04-16T10:58:55;21.70;;;11.50;;
6549;SDS011;15142;48.888;9.134;2023-04-16T11:01:30;18.40;;;10.10;;
6549;SDS011;15142;48.888;9.134;2023-04-16T11:07:13;16.00;;;9.10;;
6549;SDS011;15142;48.888;9.134;2023-04-16T11:09:49;15.97;;;9.20;;
6549;SDS011;15142;48.888;9.134;2023-04-16T11:12:21;21.77;;;8.97;;
6549;SDS011;15142;48.888;9.134;2023-04-16T11:14:52;15.17;;;9.10;;
6549;SDS011;15142;48.888;9.134;2023-04-16T11:17:22;23.17;;;9.10;;
6549;SDS011;15142;48.888;9.134;2023-04-16T11:19:58;17.67;;;8.33;;
6549;SDS011;15142;48.888;9.134;2023-04-16T11:22:27;13.60;;;8.00;;
6549;SDS011;15142;48.888;9.134;2023-04-16T11:24:56;13.27;;;7.70;;
6549;SDS011;15142;48.888;9.134;2023-04-16T11:27:26;22.27;;;8.90;;
6549;SDS011;15142;48.888;9.134;2023-04-16T11:29:58;14.10;;;8.63;;
6549;SDS011;15142;48.888;9.134;2023-04-16T11:32:29;19.30;;;8.80;;
6549;SDS011;15142;48.888;9.134;2023-04-16T11:35:02;16.57;;;8.70;;
6549;SDS011;15142;48.888;9.134;2023-04-16T11:37:33;13.57;;;7.80;;
6549;SDS011;15142;48.888;9.134;2023-04-16T11:40:02;19.40;;;9.03;;
6549;SDS011;15142;48.888;9.134;2023-04-16T11:42:32;15.10;;;7.67;;
6549;SDS011;15142;48.888;9.134;2023-04-16T11:45:02;16.10;;;8.10;;
6549;SDS011;15142;48.888;9.134;2023-04-16T11:47:31;10.43;;;6.87;;
6549;SDS011;15142;48.888;9.134;2023-04-16T11:50:19;17.30;;;7.03;;
6549;SDS011;15142;48.888;9.134;2023-04-16T11:52:49;13.00;;;7.90;;
6549;SDS011;15142;48.888;9.134;2023-04-16T11:55:19;12.10;;;6.50;;
6549;SDS011;15142;48.888;9.134;2023-04-16T11:57:49;11.37;;;7.57;;
6549;SDS011;15142;48.888;9.134;2023-04-16T12:00:18;8.83;;;6.67;;
6549;SDS011;15142;48.888;9.134;2023-04-16T12:02:48;10.00;;;6.97;;
6549;SDS011;15142;48.888;9.134;2023-04-16T12:05:30;11.60;;;6.83;;
6549;SDS011;15142;48.888;9.134;2023-04-16T12:08:00;9.40;;;6.27;;
6549;SDS011;15142;48.888;9.134;2023-04-16T12:10:30;10.10;;;6.50;;
6549;SDS011;15142;48.888;9.134;2023-04-16T12:13:10;8.63;;;4.97;;
6549;SDS011;15142;48.888;9.134;2023-04-16T12:15:43;10.57;;;5.10;;
6549;SDS011;15142;48.888;9.134;2023-04-16T12:18:12;12.23;;;6.30;;
6549;SDS011;15142;48.888;9.134;2023-04-16T12:20:44;10.97;;;6.67;;
6549;SDS011;15142;48.888;9.134;2023-04-16T12:23:21;11.33;;;7.07;;
6549;SDS011;15142;48.888;9.134;2023-04-16T12:25:50;9.37;;;6.10;;
6549;SDS011;15142;48.888;9.134;2023-04-16T12:28:26;11.37;;;6.53;;
6549;SDS011;15142;48.888;9.134;2023-04-16T12:30:56;12.20;;;5.23;;
6549;SDS011;15142;48.888;9.134;2023-04-16T12:33:25;11.57;;;6.03;;
6549;SDS011;15142;48.888;9.134;2023-04-16T12:35:56;9.93;;;5.53;;
6549;SDS011;15142;48.888;9.134;2023-04-16T12:38:25;11.10;;;6.00;;
6549;SDS011;15142;48.888;9.134;2023-04-16T12:40:54;9.13;;;5.17;;
6549;SDS011;15142;48.888;9.134;2023-04-16T12:43:23;10.00;;;6.47;;
6549;SDS011;15142;48.888;9.134;2023-04-16T12:45:52;9.53;;;6.37;;
6549;SDS011;15142;48.888;9.134;2023-04-16T12:48:21;9.73;;;5.83;;
6549;SDS011;15142;48.888;9.134;2023-04-16T12:50:52;13.63;;;7.07;;
6549;SDS011;15142;48.888;9.134;2023-04-16T12:53:23;15.60;;;7.70;;
6549;SDS011;15142;48.888;9.134;2023-04-16T12:55:52;13.27;;;7.73;;
6549;SDS011;15142;48.888;9.134;2023-04-16T12:58:21;13.07;;;6.93;;
6549;SDS011;15142;48.888;9.134;2023-04-16T13:00:49;11.23;;;6.77;;
6549;SDS011;15142;48.888;9.134;2023-04-16T13:03:18;12.33;;;6.77;;
6549;SDS011;15142;48.888;9.134;2023-04-16T13:05:47;12.20;;;6.87;;
6549;SDS011;15142;48.888;9.134;2023-04-16T13:08:16;10.43;;;6.30;;
6549;SDS011;15142;48.888;9.134;2023-04-16T13:10:47;9.90;;;5.80;;
6549;SDS011;15142;48.888;9.134;2023-04-16T13:13:16;13.00;;;7.77;;
6549;SDS011;15142;48.888;9.134;2023-04-16T13:15:44;21.00;;;6.93;;
6549;SDS011;15142;48.888;9.134;2023-04-16T13:18:12;10.17;;;6.70;;
6549;SDS011;15142;48.888;9.134;2023-04-16T13:20:41;13.20;;;8.20;;
6549;SDS011;15142;48.888;9.134;2023-04-16T13:23:10;13.47;;;6.60;;
6549;SDS011;15142;48.888;9.134;2023-04-16T13:25:40;14.23;;;6.83;;
6549;SDS011;15142;48.888;9.134;2023-04-16T13:28:11;15.00;;;7.30;;
6549;SDS011;15142;48.888;9.134;2023-04-16T13:30:39;13.60;;;7.80;;
6549;SDS011;15142;48.888;9.134;2023-04-16T13:33:08;15.00;;;7.70;;
6549;SDS011;15142;48.888;9.134;2023-04-16T13:35:37;14.63;;;7.37;;
6549;SDS011;15142;48.888;9.134;2023-04-16T13:38:06;16.13;;;8.17;;
6549;SDS011;15142;48.888;9.134;2023-04-16T13:40:34;13.03;;;7.60;;
6549;SDS011;15142;48.888;9.134;2023-04-16T13:43:03;12.60;;;8.03;;
6549;SDS011;15142;48.888;9.134;2023-04-16T13:45:35;15.60;;;8.40;;
6549;SDS011;15142;48.888;9.134;2023-04-16T13:48:04;14.50;;;8.90;;
6549;SDS011;15142;48.888;9.134;2023-04-16T13:50:33;11.27;;;7.73;;
6549;SDS011;15142;48.888;9.134;2023-04-16T13:53:02;14.70;;;9.00;;
6549;SDS011;15142;48.888;9.134;2023-04-16T13:55:30;20.57;;;9.50;;
6549;SDS011;15142;48.888;9.134;2023-04-16T13:58:00;21.57;;;10.00;;
6549;SDS011;15142;48.888;9.134;2023-04-16T14:00:28;12.00;;;8.90;;
6549;SDS011;15142;48.888;9.134;2023-04-16T14:02:59;13.43;;;10.10;;
6549;SDS011;15142;48.888;9.134;2023-04-16T14:05:30;12.83;;;8.47;;
6549;SDS011;15142;48.888;9.134;2023-04-16T14:07:58;14.57;;;9.40;;
6549;SDS011;15142;48.888;9.134;2023-04-16T14:10:27;19.27;;;10.47;;
6549;SDS011;15142;48.888;9.134;2023-04-16T14:12:56;15.53;;;9.23;;
6549;SDS011;15142;48.888;9.134;2023-04-16T14:15:25;15.50;;;9.77;;
6549;SDS011;15142;48.888;9.134;2023-04-16T14:17:54;16.67;;;9.70;;
6549;SDS011;15142;48.888;9.134;2023-04-16T14:20:25;13.97;;;8.73;;
6549;SDS011;15142;48.888;9.134;2023-04-16T14:22:54;18.00;;;9.93;;
6549;SDS011;15142;48.888;9.134;2023-04-16T14:25:22;17.07;;;10.40;;
6549;SDS011;15142;48.888;9.134;2023-04-16T14:27:51;19.37;;;10.43;;
6549;SDS011;15142;48.888;9.134;2023-04-16T14:30:20;16.97;;;10.60;;
6549;SDS011;15142;48.888;9.134;2023-04-16T14:32:48;22.50;;;10.97;;
6549;SDS011;15142;48.888;9.134;2023-04-16T14:35:17;14.80;;;10.67;;
6549;SDS011;15142;48.888;9.134;2023-04-16T14:37:49;21.80;;;10.60;;
6549;SDS011;15142;48.888;9.134;2023-04-16T14:40:18;17.00;;;8.87;;
6549;SDS011;15142;48.888;9.134;2023-04-16T14:42:47;20.40;;;11.00;;
6549;SDS011;15142;48.888;9.134;2023-04-16T14:45:15;20.90;;;11.13;;
6549;SDS011;15142;48.888;9.134;2023-04-16T14:47:44;19.60;;;11.33;;
6549;SDS011;15142;48.888;9.134;2023-04-16T14:50:14;22.23;;;12.23;;
6549;SDS011;15142;48.888;9.134;2023-04-16T14:52:42;17.33;;;10.33;;
6549;SDS011;15142;48.888;9.134;2023-04-16T14:55:13;25.30;;;13.60;;
6549;SDS011;15142;48.888;9.134;2023-04-16T14:57:42;23.67;;;11.70;;
6549;SDS011;15142;48.888;9.134;2023-04-16T15:00:12;27.03;;;12.37;;
6549;SDS011;15142;48.888;9.134;2023-04-16T15:02:41;20.60;;;10.90;;